createdAt,value
2023-04-19T00:00:24.849Z,98988.72
2023-04-19T00:03:16.359Z,98999.53
2023-04-19T00:06:05.438Z,98994.47
2023-04-19T00:08:53.263Z,98989.78
2023-04-19T00:11:40.747Z,98992.06
2023-04-19T00:14:28.423Z,98990.41
2023-04-19T00:17:16.268Z,98987.75
2023-04-19T00:20:05.184Z,98978.84
2023-04-19T00:22:54.192Z,98985.09
2023-04-19T00:25:42.384Z,98983.28
2023-04-19T00:28:30.045Z,98982.69
2023-04-19T00:31:17.576Z,98976.44
2023-04-19T00:34:05.150Z,98973.19
2023-04-19T00:36:52.870Z,98976.44
2023-04-19T00:39:41.711Z,98978.13
2023-04-19T00:42:29.126Z,98972.34
2023-04-19T00:45:16.526Z,98966.44
2023-04-19T00:48:04.470Z,98968.34
2023-04-19T00:50:52.208Z,98958.75
2023-04-19T00:53:41.092Z,98951.91
2023-04-19T00:56:31.877Z,98955.03
2023-04-19T00:59:20.161Z,98953.59
2023-04-19T01:02:08.416Z,98957.50
2023-04-19T01:04:56.458Z,98959.78
2023-04-19T01:07:47.274Z,98954.13
2023-04-19T01:10:34.871Z,98958.28
2023-04-19T01:13:24.018Z,98953.47
2023-04-19T01:16:12.505Z,98947.69
2023-04-19T01:19:00.207Z,98953.44
2023-04-19T01:21:47.743Z,98951.25
2023-04-19T01:24:36.520Z,98949.06
2023-04-19T01:27:24.061Z,98945.09
2023-04-19T01:30:12.846Z,98942.78
2023-04-19T01:33:00.159Z,98935.41
2023-04-19T01:35:49.201Z,98933.97
2023-04-19T01:38:36.691Z,98931.22
2023-04-19T01:41:27.125Z,98931.22
2023-04-19T01:44:14.831Z,98928.81
2023-04-19T01:47:02.643Z,98931.44
2023-04-19T01:49:50.336Z,98930.94
2023-04-19T01:52:37.969Z,98923.44
2023-04-19T01:55:26.439Z,98923.69
2023-04-19T01:58:15.707Z,98924.63
2023-04-19T02:01:03.561Z,98916.34
2023-04-19T02:03:51.502Z,98920.53
2023-04-19T02:06:39.088Z,98932.25
2023-04-19T02:09:26.519Z,98929.72
2023-04-19T02:12:14.111Z,98928.75
2023-04-19T02:15:03.277Z,98918.22
2023-04-19T02:17:51.091Z,98916.44
2023-04-19T02:20:38.547Z,98917.16
2023-04-19T02:23:26.217Z,98909.13
2023-04-19T02:26:14.062Z,98902.78
2023-04-19T02:29:01.674Z,98897.50
2023-04-19T02:31:50.987Z,98894.88
2023-04-19T02:34:38.664Z,98897.97
2023-04-19T02:37:26.235Z,98885.94
2023-04-19T02:40:13.826Z,98884.47
2023-04-19T02:43:01.234Z,98889.00
2023-04-19T02:45:48.813Z,98886.47
2023-04-19T02:48:37.617Z,98882.16
2023-04-19T02:51:27.116Z,98884.09
2023-04-19T02:54:15.689Z,98874.59
2023-04-19T02:57:03.498Z,98883.91
2023-04-19T02:59:51.038Z,98878.63
2023-04-19T03:02:39.483Z,98869.03
2023-04-19T03:05:28.512Z,98864.69
2023-04-19T03:08:15.931Z,98867.66
2023-04-19T03:11:03.480Z,98866.00
2023-04-19T03:13:50.793Z,98860.13
2023-04-19T03:16:38.454Z,98861.16
2023-04-19T03:19:26.380Z,98859.81
2023-04-19T03:22:15.426Z,98859.28
2023-04-19T03:25:03.205Z,98860.25
2023-04-19T03:27:52.077Z,98855.31
2023-04-19T03:30:39.648Z,98845.84
2023-04-19T03:33:26.962Z,98842.44
2023-04-19T03:36:14.687Z,98834.88
2023-04-19T03:39:04.535Z,98836.16
2023-04-19T03:41:52.063Z,98833.03
2023-04-19T03:44:39.555Z,98835.13
2023-04-19T03:47:27.064Z,98831.75
2023-04-19T03:50:14.544Z,98821.44
2023-04-19T03:53:02.404Z,98822.06
2023-04-19T03:55:51.264Z,98824.59
2023-04-19T03:58:41.006Z,98824.06
2023-04-19T04:01:29.652Z,98818.09
2023-04-19T04:04:17.392Z,98818.09
2023-04-19T04:07:05.495Z,98819.97
2023-04-19T04:09:53.001Z,98820.19
2023-04-19T04:12:41.752Z,98818.41
2023-04-19T04:15:29.342Z,98816.72
2023-04-19T04:18:18.213Z,98822.72
2023-04-19T04:21:06.135Z,98822.09
2023-04-19T04:23:53.784Z,98822.09
2023-04-19T04:26:41.188Z,98822.09
2023-04-19T04:29:30.099Z,98815.78
2023-04-19T04:32:18.238Z,98814.69
2023-04-19T04:35:08.184Z,98819.88
2023-04-19T04:37:55.761Z,98819.53
2023-04-19T04:40:43.451Z,98825.44
2023-04-19T04:43:30.903Z,98823.84
2023-04-19T04:46:19.718Z,98829.81
2023-04-19T04:49:07.457Z,98834.06
2023-04-19T04:51:55.039Z,98825.63
2023-04-19T04:54:43.085Z,98833.03
2023-04-19T04:57:30.740Z,98831.31
2023-04-19T05:00:19.386Z,98826.25
2023-04-19T05:03:10.294Z,98829.28
2023-04-19T05:05:58.290Z,98833.66
2023-04-19T05:08:46.433Z,98823.66
2023-04-19T05:11:34.045Z,98813.59
2023-04-19T05:14:21.390Z,98818.31
2023-04-19T05:17:10.590Z,98817.75
2023-04-19T05:19:59.826Z,98821.63
2023-04-19T05:22:50.135Z,98821.19
2023-04-19T05:25:37.965Z,98813.56
2023-04-19T05:28:25.736Z,98809.53
2023-04-19T05:31:14.112Z,98808.34
2023-04-19T05:34:01.652Z,98799.09
2023-04-19T05:36:50.622Z,98801.19
2023-04-19T05:39:38.136Z,98799.75
2023-04-19T05:42:25.651Z,98795.56
2023-04-19T05:45:15.603Z,98789.69
2023-04-19T05:48:03.405Z,98794.53
2023-04-19T05:51:09.292Z,98797.66
2023-04-19T05:53:58.378Z,98795.75
2023-04-19T05:56:46.223Z,98785.53
2023-04-19T05:59:33.736Z,98793.94
2023-04-19T06:02:21.563Z,98798.88
2023-04-19T06:05:10.837Z,98790.94
2023-04-19T06:08:02.894Z,98789.22
2023-04-19T06:10:55.799Z,98792.28
2023-04-19T06:13:46.153Z,98798.63
2023-04-19T06:16:33.713Z,98796.06
2023-04-19T06:19:21.929Z,98792.31
2023-04-19T06:22:09.237Z,98801.44
2023-04-19T06:24:56.907Z,98796.81
2023-04-19T06:27:45.733Z,98803.16
2023-04-19T06:30:33.491Z,98797.06
2023-04-19T06:33:21.132Z,98796.31
2023-04-19T06:36:09.354Z,98787.03
2023-04-19T06:38:57.157Z,98781.09
2023-04-19T06:41:44.986Z,98784.78
2023-04-19T06:44:34.303Z,98782.38
2023-04-19T06:47:22.269Z,98784.81
2023-04-19T06:50:11.824Z,98777.13
2023-04-19T06:52:59.810Z,98777.22
2023-04-19T06:55:47.555Z,98764.53
2023-04-19T06:58:35.872Z,98764.53
2023-04-19T07:01:24.767Z,98756.09
2023-04-19T07:04:13.665Z,98754.66
2023-04-19T07:07:01.448Z,98755.00
2023-04-19T07:09:49.094Z,98754.28
2023-04-19T07:12:37.910Z,98750.25
2023-04-19T07:15:25.837Z,98751.66
2023-04-19T07:18:16.071Z,98750.31
2023-04-19T07:21:04.113Z,98749.94
2023-04-19T07:23:51.922Z,98748.56
2023-04-19T07:26:39.383Z,98745.38
2023-04-19T07:29:26.866Z,98740.50
2023-04-19T07:32:15.255Z,98745.41
2023-04-19T07:35:04.729Z,98747.78
2023-04-19T07:37:53.022Z,98743.47
2023-04-19T07:40:40.616Z,98744.72
2023-04-19T07:43:28.370Z,98745.44
2023-04-19T07:46:17.062Z,98745.84
2023-04-19T07:49:05.129Z,98754.66
2023-04-19T07:51:54.256Z,98745.84
2023-04-19T07:54:42.197Z,98748.50
2023-04-19T07:57:29.999Z,98744.63
2023-04-19T08:00:18.989Z,98751.59
2023-04-19T08:03:06.664Z,98749.78
2023-04-19T08:05:54.999Z,98745.31
2023-04-19T08:08:43.938Z,98743.53
2023-04-19T08:11:32.330Z,98742.41
2023-04-19T08:14:32.285Z,98741.53
2023-04-19T08:17:27.461Z,98737.69
2023-04-19T08:20:17.821Z,98741.84
2023-04-19T08:23:20.437Z,98742.44
2023-04-19T08:26:11.346Z,98737.94
2023-04-19T08:28:59.201Z,98746.63
2023-04-19T08:31:47.069Z,98744.50
2023-04-19T08:34:37.097Z,98746.06
2023-04-19T08:37:25.480Z,98749.69
2023-04-19T08:40:13.426Z,98748.03
2023-04-19T08:43:07.892Z,98749.69
2023-04-19T08:45:57.684Z,98754.16
2023-04-19T08:48:46.270Z,98753.59
2023-04-19T08:51:34.968Z,98750.81
2023-04-19T08:54:24.563Z,98753.31
2023-04-19T08:57:12.542Z,98750.13
2023-04-19T09:00:05.765Z,98751.66
2023-04-19T09:02:56.037Z,98753.31
2023-04-19T09:05:44.077Z,98742.56
2023-04-19T09:08:32.335Z,98742.44
2023-04-19T09:11:20.453Z,98743.03
2023-04-19T09:14:12.840Z,98740.78
2023-04-19T09:17:18.666Z,98739.69
2023-04-19T09:20:08.500Z,98729.75
2023-04-19T09:23:07.254Z,98732.13
2023-04-19T09:26:15.177Z,98731.41
2023-04-19T09:29:06.937Z,98726.38
2023-04-19T09:32:01.396Z,98719.38
2023-04-19T09:34:56.548Z,98729.03
2023-04-19T09:40:35.391Z,98716.19
2023-04-19T09:43:57.499Z,98706.56
2023-04-19T09:46:36.552Z,98714.78
2023-04-19T09:49:41.620Z,98705.03
2023-04-19T09:52:36.107Z,98699.84
2023-04-19T09:55:27.648Z,98704.75
2023-04-19T09:58:16.312Z,98701.94
2023-04-19T10:01:14.832Z,98691.31
2023-04-19T10:04:20.551Z,98696.06
2023-04-19T10:10:19.374Z,98682.16
2023-04-19T10:13:19.647Z,98686.19
2023-04-19T10:16:18.971Z,98680.00
2023-04-19T10:19:12.247Z,98672.75
2023-04-19T10:22:00.535Z,98676.44
2023-04-19T10:25:12.860Z,98665.22
2023-04-19T10:28:00.630Z,98660.06
2023-04-19T10:30:56.659Z,98651.69
2023-04-19T10:33:44.383Z,98644.72
2023-04-19T10:36:32.004Z,98632.25
2023-04-19T10:39:41.476Z,98634.59
2023-04-19T10:43:20.164Z,98621.56
2023-04-19T10:46:10.326Z,98613.91
2023-04-19T10:49:03.256Z,98606.38
2023-04-19T10:51:54.683Z,98598.47
2023-04-19T10:54:42.456Z,98596.44
2023-04-19T10:57:50.067Z,98592.34
2023-04-19T11:00:39.413Z,98581.25
2023-04-19T11:03:53.562Z,98571.34
2023-04-19T11:07:03.393Z,98570.06
2023-04-19T11:09:52.512Z,98572.03
2023-04-19T11:12:45.103Z,98563.81
2023-04-19T11:15:32.805Z,98562.81
2023-04-19T11:18:21.902Z,98552.56
2023-04-19T11:21:14.853Z,98541.59
2023-04-19T11:24:09.445Z,98539.59
2023-04-19T11:26:58.770Z,98524.84
2023-04-19T11:29:46.718Z,98526.41
2023-04-19T11:32:34.809Z,98518.81
2023-04-19T11:35:25.668Z,98512.50
2023-04-19T11:38:15.417Z,98512.41
2023-04-19T11:41:05.427Z,98512.25
2023-04-19T11:43:53.642Z,98511.47
2023-04-19T11:46:41.117Z,98503.69
2023-04-19T11:49:31.158Z,98495.59
2023-04-19T11:52:25.454Z,98487.50
2023-04-19T11:55:20.755Z,98485.41
2023-04-19T11:58:10.568Z,98479.06
2023-04-19T12:01:04.131Z,98483.91
2023-04-19T12:03:54.230Z,98481.44
2023-04-19T12:06:42.036Z,98468.63
2023-04-19T12:09:31.436Z,98471.09
2023-04-19T12:12:33.400Z,98478.78
2023-04-19T12:15:24.459Z,98460.75
2023-04-19T12:18:13.461Z,98460.75
2023-04-19T12:21:01.494Z,98458.97
2023-04-19T12:23:49.162Z,98456.84
2023-04-19T12:26:38.278Z,98450.09
2023-04-19T12:29:25.962Z,98459.34
2023-04-19T12:32:15.836Z,98472.72
2023-04-19T12:35:03.865Z,98455.28
2023-04-19T12:37:51.901Z,98455.38
2023-04-19T12:40:39.372Z,98451.53
2023-04-19T12:43:30.061Z,98448.53
2023-04-19T12:46:17.929Z,98453.31
2023-04-19T12:49:05.391Z,98458.44
2023-04-19T12:51:53.666Z,98443.09
2023-04-19T12:54:42.301Z,98446.69
2023-04-19T12:57:30.133Z,98440.34
2023-04-19T13:00:19.743Z,98442.38
2023-04-19T13:05:54.862Z,98445.16
2023-04-19T13:08:47.164Z,98450.34
2023-04-19T13:11:36.212Z,98453.50
2023-04-19T13:14:23.906Z,98449.97
2023-04-19T13:17:13.111Z,98451.00
2023-04-19T13:20:00.695Z,98430.56
2023-04-19T13:22:48.350Z,98427.91
2023-04-19T13:25:36.067Z,98437.59
2023-04-19T13:28:23.360Z,98445.94
2023-04-19T13:31:11.048Z,98435.19
2023-04-19T13:34:01.794Z,98441.91
2023-04-19T13:36:49.356Z,98440.97
2023-04-19T13:39:38.120Z,98416.38
2023-04-19T13:42:26.365Z,98428.41
2023-04-19T13:45:14.734Z,98419.88
2023-04-19T13:48:02.160Z,98432.56
2023-04-19T13:50:52.626Z,98431.00
2023-04-19T13:53:40.764Z,98434.75
2023-04-19T13:56:28.267Z,98433.84
2023-04-19T13:59:16.266Z,98421.31
2023-04-19T14:02:04.848Z,98429.97
2023-04-19T14:04:52.552Z,98433.50
2023-04-19T14:07:42.405Z,98435.00
2023-04-19T14:10:30.249Z,98441.72
2023-04-19T14:13:17.938Z,98436.47
2023-04-19T14:16:06.294Z,98434.22
2023-04-19T14:18:53.716Z,98427.78
2023-04-19T14:21:41.456Z,98430.00
2023-04-19T14:24:30.237Z,98427.69
2023-04-19T14:27:19.132Z,98429.91
2023-04-19T14:30:08.423Z,98435.03
2023-04-19T14:32:55.891Z,98425.56
2023-04-19T14:35:43.894Z,98423.47
2023-04-19T14:38:31.653Z,98423.94
2023-04-19T14:41:20.322Z,98428.31
2023-04-19T14:44:07.918Z,98433.81
2023-04-19T14:46:55.475Z,98423.91
2023-04-19T14:49:43.149Z,98423.28
2023-04-19T14:52:30.859Z,98420.84
2023-04-19T14:55:18.822Z,98421.59
2023-04-19T14:58:07.800Z,98415.47
2023-04-19T15:00:55.290Z,98413.88
2023-04-19T15:03:43.328Z,98415.03
2023-04-19T15:06:31.670Z,98420.25
2023-04-19T15:09:19.709Z,98422.44
2023-04-19T15:12:07.483Z,98419.81
2023-04-19T15:14:56.366Z,98427.13
2023-04-19T15:17:47.383Z,98426.50
2023-04-19T15:20:34.950Z,98424.00
2023-04-19T15:23:25.978Z,98419.78
2023-04-19T15:26:13.813Z,98418.13
2023-04-19T15:29:01.363Z,98414.84
2023-04-19T15:31:50.278Z,98421.44
2023-04-19T15:34:37.779Z,98418.63
2023-04-19T15:37:25.463Z,98422.81
2023-04-19T15:40:14.418Z,98425.44
2023-04-19T15:43:02.210Z,98428.78
2023-04-19T15:45:49.689Z,98426.44
2023-04-19T15:48:38.627Z,98417.19
2023-04-19T15:51:27.397Z,98421.03
2023-04-19T15:54:16.164Z,98417.72
2023-04-19T15:57:03.823Z,98419.00
2023-04-19T15:59:51.757Z,98419.41
2023-04-19T16:02:40.637Z,98418.47
2023-04-19T16:05:29.933Z,98425.78
2023-04-19T16:08:19.492Z,98434.91
2023-04-19T16:11:07.305Z,98432.75
2023-04-19T16:13:54.960Z,98432.38
2023-04-19T16:16:42.623Z,98426.66
2023-04-19T16:19:30.526Z,98429.59
2023-04-19T16:22:19.321Z,98422.13
2023-04-19T16:25:10.199Z,98430.47
2023-04-19T16:27:58.528Z,98425.56
2023-04-19T16:30:47.680Z,98428.06
2023-04-19T16:33:35.627Z,98414.16
2023-04-19T16:36:23.263Z,98418.13
2023-04-19T16:39:12.472Z,98425.38
2023-04-19T16:42:00.203Z,98421.94
2023-04-19T16:44:47.777Z,98421.72
2023-04-19T16:47:36.457Z,98420.47
2023-04-19T16:50:24.130Z,98415.53
2023-04-19T16:53:12.602Z,98411.06
2023-04-19T16:56:03.457Z,98408.63
2023-04-19T16:58:56.344Z,98411.91
2023-04-19T17:04:51.552Z,98410.50
2023-04-19T17:07:39.758Z,98423.03
2023-04-19T17:10:28.432Z,98409.94
2023-04-19T17:13:17.527Z,98416.16
2023-04-19T17:16:05.965Z,98425.06
2023-04-19T17:18:57.149Z,98422.28
2023-04-19T17:21:44.974Z,98429.94
2023-04-19T17:24:40.153Z,98427.72
2023-04-19T17:27:36.466Z,98427.06
2023-04-19T17:30:25.987Z,98431.63
2023-04-19T17:33:13.743Z,98433.63
2023-04-19T17:36:01.373Z,98435.84
2023-04-19T17:38:48.925Z,98439.09
2023-04-19T17:41:36.674Z,98443.69
2023-04-19T17:44:24.887Z,98444.22
2023-04-19T17:47:14.040Z,98448.16
2023-04-19T17:50:08.790Z,98446.91
2023-04-19T17:52:56.507Z,98439.09
2023-04-19T17:55:44.306Z,98450.59
2023-04-19T17:58:31.939Z,98446.50
2023-04-19T18:01:23.898Z,98441.88
2023-04-19T18:04:17.365Z,98452.91
2023-04-19T18:07:05.212Z,98448.19
2023-04-19T18:09:52.668Z,98451.50
2023-04-19T18:12:40.389Z,98447.97
2023-04-19T18:15:28.540Z,98459.28
2023-04-19T18:18:26.477Z,98452.53
2023-04-19T18:21:17.502Z,98461.53
2023-04-19T18:24:17.352Z,98466.25
2023-04-19T18:27:05.463Z,98469.03
2023-04-19T18:29:53.296Z,98464.44
2023-04-19T18:32:44.526Z,98467.00
2023-04-19T18:35:35.621Z,98467.66
2023-04-19T18:38:25.159Z,98469.13
2023-04-19T18:41:16.453Z,98477.03
2023-04-19T18:44:38.968Z,98470.00
2023-04-19T18:47:21.750Z,98476.69
2023-04-19T18:50:12.044Z,98473.72
2023-04-19T18:53:01.066Z,98467.94
2023-04-19T18:55:51.827Z,98475.31
2023-04-19T18:58:40.079Z,98469.69
2023-04-19T19:01:28.722Z,98473.38
2023-04-19T19:04:43.040Z,98474.09
2023-04-19T19:07:36.918Z,98471.59
2023-04-19T19:10:48.488Z,98477.28
2023-04-19T19:13:38.305Z,98477.63
2023-04-19T19:16:31.059Z,98487.72
2023-04-19T19:19:22.796Z,98489.69
2023-04-19T19:22:26.246Z,98487.22
2023-04-19T19:25:55.364Z,98481.69
2023-04-19T19:28:54.919Z,98491.63
2023-04-19T19:31:45.549Z,98497.06
2023-04-19T19:34:51.420Z,98492.19
2023-04-19T19:37:48.605Z,98494.97
2023-04-19T19:40:40.813Z,98491.34
2023-04-19T19:43:45.266Z,98503.03
2023-04-19T19:46:33.498Z,98498.97
2023-04-19T19:49:21.315Z,98499.75
2023-04-19T19:52:09.221Z,98488.31
2023-04-19T19:54:57.033Z,98493.31
2023-04-19T20:00:46.287Z,98493.28
2023-04-19T20:03:42.729Z,98494.41
2023-04-19T20:07:25.192Z,98500.09
2023-04-19T20:09:45.718Z,98499.09
2023-04-19T20:12:36.914Z,98495.19
2023-04-19T20:15:34.256Z,98500.13
2023-04-19T20:18:29.382Z,98505.81
2023-04-19T20:21:21.352Z,98500.06
2023-04-19T20:24:11.957Z,98497.38
2023-04-19T20:26:59.922Z,98500.28
2023-04-19T20:29:50.286Z,98495.13
2023-04-19T20:32:42.512Z,98497.19
2023-04-19T20:35:36.577Z,98490.88
2023-04-19T20:38:38.386Z,98490.53
2023-04-19T20:41:30.654Z,98487.25
2023-04-19T20:44:20.081Z,98491.00
2023-04-19T20:47:13.010Z,98489.72
2023-04-19T20:50:08.178Z,98489.38
2023-04-19T20:53:03.031Z,98487.97
2023-04-19T20:56:31.329Z,98488.75
2023-04-19T20:59:21.345Z,98486.22
2023-04-19T21:02:16.330Z,98489.50
2023-04-19T21:05:07.711Z,98482.06
2023-04-19T21:08:16.380Z,98477.44
2023-04-19T21:11:12.619Z,98486.81
2023-04-19T21:14:05.628Z,98483.97
2023-04-19T21:16:53.174Z,98477.53
2023-04-19T21:19:41.314Z,98477.91
2023-04-19T21:22:36.089Z,98481.03
2023-04-19T21:25:38.326Z,98470.50
2023-04-19T21:28:51.121Z,98466.56
2023-04-19T21:31:41.711Z,98463.84
2023-04-19T21:34:51.988Z,98464.44
2023-04-19T21:37:39.474Z,98469.44
2023-04-19T21:40:35.928Z,98467.16
2023-04-19T21:43:27.009Z,98464.31
2023-04-19T21:46:14.752Z,98462.28
2023-04-19T21:49:02.394Z,98460.84
2023-04-19T21:51:51.088Z,98461.44
2023-04-19T21:54:38.868Z,98449.59
2023-04-19T21:57:27.800Z,98448.41
2023-04-19T22:00:16.566Z,98444.44
2023-04-19T22:03:04.374Z,98446.59
2023-04-19T22:05:52.131Z,98446.22
2023-04-19T22:08:39.553Z,98442.38
2023-04-19T22:11:28.907Z,98444.41
2023-04-19T22:14:18.161Z,98444.41
2023-04-19T22:17:06.702Z,98444.16
2023-04-19T22:19:57.233Z,98437.34
2023-04-19T22:22:44.668Z,98439.50
2023-04-19T22:25:32.022Z,98432.28
2023-04-19T22:28:19.640Z,98424.63
2023-04-19T22:31:08.987Z,98431.94
2023-04-19T22:33:56.591Z,98431.53
2023-04-19T22:36:44.145Z,98427.69
2023-04-19T22:39:31.634Z,98425.75
2023-04-19T22:42:19.325Z,98418.09
2023-04-19T22:45:08.631Z,98419.28
2023-04-19T22:47:57.460Z,98415.22
2023-04-19T22:50:46.327Z,98417.34
2023-04-19T22:53:34.067Z,98412.31
2023-04-19T22:56:21.771Z,98409.41
2023-04-19T22:59:09.269Z,98406.50
2023-04-19T23:01:56.908Z,98400.63
2023-04-19T23:04:48.489Z,98399.28
2023-04-19T23:07:36.119Z,98398.81
2023-04-19T23:10:25.948Z,98397.34
2023-04-19T23:13:16.267Z,98391.69
2023-04-19T23:16:04.394Z,98397.41
2023-04-19T23:18:51.931Z,98390.81
2023-04-19T23:21:40.768Z,98391.97
2023-04-19T23:24:28.266Z,98392.44
2023-04-19T23:27:15.773Z,98387.63
2023-04-19T23:30:03.504Z,98383.50
2023-04-19T23:32:51.325Z,98381.34
2023-04-19T23:35:38.734Z,98385.97
2023-04-19T23:38:29.793Z,98382.59
2023-04-19T23:41:17.318Z,98380.31
2023-04-19T23:44:04.842Z,98377.19
2023-04-19T23:46:52.414Z,98366.28
2023-04-19T23:49:40.414Z,98367.44
2023-04-19T23:52:28.223Z,98367.75
2023-04-19T23:55:17.354Z,98370.59
2023-04-19T23:58:05.216Z,98367.50
